KMMT/MMT METAR and TAF weather

Enter ICAO airport designator
Station Type Date Time Source
KMMT METAR 2024/04/18 05:55 UTC NOAA

KMMT 180555Z AUTO 17004KT 10SM BKN075 19/16 A3003 RMK AO2 SLPNO 60000 T01870163 10238 20186 58002 FZRANO $


Station Type Date Time Source
KMMT Decoded METAR 2024/04/18 05:55 UTC NOAA

McEntire Air National Guard Weather Facility Base, SC, United States (KMMT) 33-55N 080-48W
Apr 18, 2024 - 01:55 AM EDT / 2024.04.18 0555 UTC
Wind: from the S (170 degrees) at 5 MPH (4 KT):0
Visibility: 10 mile(s):0
Sky conditions: mostly cloudy
Temperature: 65.7 F (18.7 C)
Dew Point: 61.3 F (16.3 C)
Relative Humidity: 85%
Pressure (altimeter): 30.03 in. Hg (1016 hPa)
Pressure tendency: 0.01 inches (0.2 hPa) lower than three hours ago
ob: KMMT 180555Z AUTO 17004KT 10SM BKN075 19/16 A3003 RMK AO2 SLPNO 60000 T01870163 10238 20186 58002 FZRANO
cycle: 6

Station Type Date Time Source
KMMT TAF 2024/04/18 23:33 UTC NOAA